Time;durP1;ratioP1;P1;durP2;ratioP2;P2;SDS_P1;SDS_P2;PMS_P1;PMS_P2;Temp;Humidity;BMP_temperature;BMP_pressure;BME280_temperature;BME280_humidity;BME280_pressure;Samples;Min_cycle;Max_cycle;Signal;HPM_P1;HPM_P2
2021/12/07 00:01:16;;;;;;;5.30;0.65;;;;;;;0.88;100.00;100195.59;5063443;28;20038;-49
2021/12/07 00:03:42;;;;;;;2.75;0.10;;;;;;;0.85;100.00;100198.44;5083971;28;20036;-54
2021/12/07 00:06:08;;;;;;;4.25;0.40;;;;;;;0.87;100.00;100196.53;5083589;28;20556;-52
2021/12/07 00:08:34;;;;;;;1.33;0.13;;;;;;;0.83;100.00;100206.41;5083336;28;20107;-51
2021/12/07 00:11:00;;;;;;;6.13;0.57;;;;;;;0.92;100.00;100206.56;5081509;28;20123;-53
2021/12/07 00:13:29;;;;;;;1.60;0.10;;;;;;;0.92;100.00;100204.78;5084175;28;20077;-50
2021/12/07 00:15:54;;;;;;;1.55;0.10;;;;;;;1.03;100.00;100209.03;5083218;28;20082;-51
2021/12/07 00:18:20;;;;;;;0.55;0.10;;;;;;;1.07;100.00;100202.59;5083858;28;20076;-51
2021/12/07 00:20:45;;;;;;;3.88;0.00;;;;;;;1.22;100.00;100210.88;5082858;28;20055;-52
2021/12/07 00:23:11;;;;;;;1.90;0.32;;;;;;;1.15;100.00;100218.41;5074837;28;20103;-49
2021/12/07 00:25:36;;;;;;;1.90;0.17;;;;;;;1.02;100.00;100216.06;5078081;28;20036;-54
2021/12/07 00:28:03;;;;;;;1.30;0.28;;;;;;;0.99;100.00;100213.72;5071401;28;20485;-54
2021/12/07 00:30:32;;;;;;;0.30;0.13;;;;;;;1.09;100.00;100224.19;5082589;28;20036;-51
2021/12/07 00:33:13;;;;;;;1.75;0.20;;;;;;;1.25;100.00;100221.03;5059114;28;20029;-53
2021/12/07 00:35:39;;;;;;;2.42;0.10;;;;;;;1.19;100.00;100219.81;5083351;28;20031;-50
2021/12/07 00:38:23;;;;;;;5.90;0.25;;;;;;;1.09;100.00;100219.78;5080055;28;20489;-51
2021/12/07 00:40:51;;;;;;;2.08;0.15;;;;;;;0.94;100.00;100208.09;5085375;28;20024;-53
2021/12/07 00:43:17;;;;;;;1.05;0.30;;;;;;;0.84;100.00;100204.63;5085067;28;20036;-50
2021/12/07 00:45:45;;;;;;;4.40;0.35;;;;;;;0.76;100.00;100218.34;5077887;28;20032;-51
2021/12/07 00:48:12;;;;;;;2.67;0.20;;;;;;;0.71;100.00;100217.09;5082643;28;20495;-51
2021/12/07 00:50:42;;;;;;;4.50;1.05;;;;;;;0.59;100.00;100209.38;5083809;28;20111;-54
2021/12/07 00:53:08;;;;;;;5.53;0.35;;;;;;;0.43;100.00;100219.50;5079395;28;20028;-50
2021/12/07 00:55:38;;;;;;;1.55;0.08;;;;;;;0.31;100.00;100212.72;5077516;28;20371;-51
2021/12/07 00:58:16;;;;;;;1.65;0.47;;;;;;;0.23;100.00;100215.97;5085862;28;20096;-49
2021/12/07 01:00:43;;;;;;;2.38;0.20;;;;;;;0.04;100.00;100223.72;5086646;28;20103;-52
2021/12/07 01:03:08;;;;;;;1.58;0.10;;;;;;;-0.12;100.00;100225.00;5084040;28;20039;-51
2021/12/07 01:05:36;;;;;;;3.83;0.20;;;;;;;-0.19;100.00;100226.47;5085332;28;20101;-53
2021/12/07 01:26:50;;;;;;;2.17;0.30;;;;;;;-0.44;100.00;100206.81;5078822;28;20035;-53
2021/12/07 01:29:18;;;;;;;0.20;0.00;;;;;;;-0.36;100.00;100207.03;5088180;28;20020;-53
2021/12/07 01:32:04;;;;;;;3.67;0.40;;;;;;;-0.46;100.00;100198.31;5084268;28;20110;-51
2021/12/07 01:37:31;;;;;;;2.95;0.20;;;;;;;-0.72;100.00;100184.84;5083341;28;20050;-53
2021/12/07 01:45:49;;;;;;;1.25;0.68;;;;;;;-0.77;100.00;100190.41;5074868;28;20092;-51
2021/12/07 02:01:49;;;;;;;2.33;0.20;;;;;;;-0.61;100.00;100194.38;5079001;28;20399;-52
2021/12/07 02:04:15;;;;;;;4.57;0.22;;;;;;;-0.64;100.00;100168.59;5080415;28;20036;-53
2021/12/07 02:06:40;;;;;;;1.83;0.20;;;;;;;-0.79;100.00;100162.88;5086146;28;20024;-52
2021/12/07 02:09:08;;;;;;;2.90;0.60;;;;;;;-0.82;100.00;100181.34;5084542;28;20106;-52
2021/12/07 02:11:34;;;;;;;4.25;0.63;;;;;;;-0.78;100.00;100165.31;5083611;28;20777;-49
2021/12/07 02:16:30;;;;;;;1.33;0.00;;;;;;;-0.63;100.00;100175.44;5079797;28;20036;-51
2021/12/07 02:18:56;;;;;;;7.28;0.20;;;;;;;-0.55;100.00;100173.03;5073032;28;20035;-50
2021/12/07 02:21:24;;;;;;;0.22;0.15;;;;;;;-0.63;100.00;100173.66;5080773;28;20032;-49
2021/12/07 02:23:51;;;;;;;2.50;0.20;;;;;;;-0.77;100.00;100171.38;5080997;28;20036;-49
2021/12/07 02:26:18;;;;;;;0.32;0.00;;;;;;;-0.82;100.00;100166.53;5077697;28;20473;-50
2021/12/07 02:28:44;;;;;;;4.93;1.50;;;;;;;-0.81;100.00;100170.78;5076025;28;20087;-50
2021/12/07 02:31:10;;;;;;;8.88;0.30;;;;;;;-0.81;100.00;100186.41;5080048;28;20583;-51
2021/12/07 02:33:36;;;;;;;2.70;0.43;;;;;;;-0.76;100.00;100191.25;5082426;28;20048;-51
2021/12/07 02:36:04;;;;;;;5.32;0.45;;;;;;;-0.80;100.00;100193.28;5082730;28;20088;-50
2021/12/07 02:38:29;;;;;;;1.35;0.52;;;;;;;-0.90;100.00;100192.38;5074553;28;20531;-51
2021/12/07 02:40:55;;;;;;;0.38;0.15;;;;;;;-0.93;100.00;100190.84;5076607;28;20056;-49
2021/12/07 02:43:20;;;;;;;11.02;3.63;;;;;;;-1.00;100.00;100173.25;5081885;28;20044;-49
2021/12/07 02:45:46;;;;;;;5.93;0.20;;;;;;;-0.82;100.00;100171.75;5077575;28;20064;-48
2021/12/07 02:48:12;;;;;;;4.07;0.35;;;;;;;-0.69;100.00;100172.38;5081070;28;20426;-53
2021/12/07 02:50:38;;;;;;;2.08;0.43;;;;;;;-0.61;100.00;100179.56;5076355;28;20078;-52
2021/12/07 02:53:03;;;;;;;1.90;0.30;;;;;;;-0.63;100.00;100175.44;5073464;28;20597;-48
2021/12/07 02:55:31;;;;;;;5.47;0.10;;;;;;;-0.61;100.00;100176.16;5084372;28;20111;-49
2021/12/07 02:57:57;;;;;;;3.65;0.82;;;;;;;-0.56;100.00;100177.41;5082903;28;20026;-52
2021/12/07 03:00:27;;;;;;;4.30;0.15;;;;;;;-0.51;100.00;100164.03;5083276;28;20457;-50
2021/12/07 03:03:01;;;;;;;2.10;0.25;;;;;;;-0.50;100.00;100155.25;5053542;28;20484;-54
2021/12/07 03:26:35;;;;;;;1.67;1.45;;;;;;;-0.89;100.00;100181.81;5080019;28;20518;-53
2021/12/07 03:29:01;;;;;;;0.52;0.15;;;;;;;-0.94;100.00;100189.16;5078840;28;20040;-50
2021/12/07 03:31:29;;;;;;;2.58;0.25;;;;;;;-0.93;100.00;100187.38;5083358;28;20461;-49
2021/12/07 03:33:57;;;;;;;4.63;0.38;;;;;;;-1.01;100.00;100190.59;5083225;28;20040;-53
2021/12/07 03:36:25;;;;;;;3.50;0.95;;;;;;;-1.13;100.00;100187.22;5081121;28;20626;-54
2021/12/07 03:38:51;;;;;;;0.30;0.20;;;;;;;-1.12;100.00;100186.28;5075520;28;20039;-50
2021/12/07 03:41:17;;;;;;;2.05;0.20;;;;;;;-1.11;100.00;100197.50;5082081;28;20035;-51
2021/12/07 03:43:43;;;;;;;2.92;0.57;;;;;;;-1.10;100.00;100196.56;5075093;28;20052;-49
2021/12/07 03:46:09;;;;;;;1.83;0.08;;;;;;;-1.08;100.00;100199.03;5080010;28;20066;-53
2021/12/07 03:48:35;;;;;;;1.90;1.73;;;;;;;-1.10;100.00;100205.19;5080446;28;20103;-52
2021/12/07 03:51:01;;;;;;;6.25;0.60;;;;;;;-1.02;100.00;100201.16;5084135;28;20040;-51
2021/12/07 03:53:28;;;;;;;3.63;0.38;;;;;;;-1.01;100.00;100190.59;5079774;28;20574;-51
2021/12/07 03:55:54;;;;;;;2.20;0.50;;;;;;;-0.99;100.00;100188.72;5082611;28;20088;-52
2021/12/07 03:58:19;;;;;;;2.08;0.10;;;;;;;-1.01;100.00;100182.81;5064572;28;20058;-51
2021/12/07 04:00:46;;;;;;;1.73;0.35;;;;;;;-1.03;100.00;100170.88;5082505;28;20506;-52
2021/12/07 04:03:14;;;;;;;2.45;0.70;;;;;;;-0.97;100.00;100167.78;5083157;28;20032;-51
2021/12/07 04:05:44;;;;;;;0.90;0.05;;;;;;;-1.02;100.00;100168.16;5079408;28;20045;-51
2021/12/07 04:08:12;;;;;;;1.10;0.50;;;;;;;-1.03;100.00;100168.25;5080899;28;20032;-53
2021/12/07 04:10:38;;;;;;;7.35;0.47;;;;;;;-0.99;100.00;100165.28;5081870;28;20501;-52
2021/12/07 04:13:03;;;;;;;4.47;0.55;;;;;;;-0.99;100.00;100154.06;5078567;28;20057;-48
2021/12/07 04:15:29;;;;;;;2.75;0.47;;;;;;;-0.97;100.00;100152.16;5072410;28;20506;-50
2021/12/07 04:17:54;;;;;;;5.55;0.40;;;;;;;-1.00;100.00;100161.06;5082129;28;20039;-49
2021/12/07 04:20:20;;;;;;;1.02;0.38;;;;;;;-1.00;100.00;100155.84;5087508;28;20479;-49
2021/12/07 04:22:47;;;;;;;3.17;0.50;;;;;;;-1.02;100.00;100147.34;5082494;28;20051;-49
2021/12/07 04:25:15;;;;;;;1.75;0.40;;;;;;;-1.05;100.00;100144.97;5085417;28;20032;-48
2021/12/07 04:27:41;;;;;;;6.93;0.55;;;;;;;-0.99;100.00;100149.69;5076932;28;20032;-48
2021/12/07 04:30:17;;;;;;;5.82;1.88;;;;;;;-0.90;100.00;100151.53;5084569;28;20052;-50
2021/12/07 04:32:43;;;;;;;3.42;0.17;;;;;;;-0.84;100.00;100147.59;5083177;28;20073;-48
2021/12/07 04:35:10;;;;;;;1.05;0.10;;;;;;;-0.83;100.00;100141.44;5079172;28;20032;-51
2021/12/07 04:37:36;;;;;;;0.20;0.13;;;;;;;-0.88;100.00;100130.56;5083028;28;20401;-50
2021/12/07 04:40:03;;;;;;;1.52;0.25;;;;;;;-0.90;100.00;100127.31;5085052;28;20400;-53
2021/12/07 04:42:29;;;;;;;3.38;0.40;;;;;;;-0.93;100.00;100127.53;5088684;28;20028;-49
2021/12/07 04:44:58;;;;;;;2.13;0.28;;;;;;;-0.93;100.00;100122.31;5073733;28;20029;-52
2021/12/07 04:47:36;;;;;;;6.70;0.52;;;;;;;-0.96;100.00;100126.00;5082076;28;20062;-50
2021/12/07 04:58:03;;;;;;;5.28;0.30;;;;;;;-1.06;100.00;100101.69;5086482;28;20096;-51
2021/12/07 05:00:29;;;;;;;0.57;0.25;;;;;;;-1.07;100.00;100097.44;5085287;28;20412;-52
2021/12/07 05:02:58;;;;;;;0.80;0.22;;;;;;;-1.07;100.00;100078.41;5085191;28;20024;-51
2021/12/07 05:05:29;;;;;;;1.77;0.60;;;;;;;-1.08;100.00;100074.97;5085818;28;20032;-51
2021/12/07 05:07:58;;;;;;;3.50;1.65;;;;;;;-1.11;100.00;100076.06;5066779;28;20481;-52
2021/12/07 05:24:03;;;;;;;3.20;0.20;;;;;;;-1.35;100.00;100068.47;5084056;28;20130;-52
2021/12/07 05:37:42;;;;;;;2.63;1.33;;;;;;;-1.29;100.00;100050.69;5084355;28;20039;-51
2021/12/07 05:37:57;;;;;;;0.08;0.00;;;;;;;-1.26;100.00;100050.47;5083762;28;20036;-50
2021/12/07 05:40:29;;;;;;;3.13;0.45;;;;;;;-1.23;100.00;100040.63;5085728;28;20032;-50
2021/12/07 05:42:56;;;;;;;0.63;0.38;;;;;;;-1.18;100.00;100048.88;5082433;28;20059;-49
2021/12/07 05:45:32;;;;;;;0.52;0.10;;;;;;;-1.10;100.00;100036.06;5084821;28;20055;-54
2021/12/07 05:47:59;;;;;;;2.53;0.32;;;;;;;-1.03;100.00;100030.34;5066900;28;20028;-50
2021/12/07 05:50:27;;;;;;;0.75;0.15;;;;;;;-0.96;100.00;100024.50;5083348;28;20089;-52
2021/12/07 05:52:53;;;;;;;0.82;0.20;;;;;;;-0.91;100.00;100031.94;5082166;28;20043;-51
2021/12/07 05:55:19;;;;;;;1.13;0.45;;;;;;;-0.84;100.00;100019.25;5081187;28;20024;-51
2021/12/07 05:57:44;;;;;;;1.60;0.22;;;;;;;-0.77;100.00;100021.19;5084053;28;20452;-49
2021/12/07 06:00:23;;;;;;;0.32;0.28;;;;;;;-0.68;100.00;100019.59;5084871;28;20028;-53
2021/12/07 06:02:48;;;;;;;4.95;0.30;;;;;;;-0.65;100.00;100014.13;5084669;28;20395;-51
2021/12/07 06:05:14;;;;;;;8.38;0.43;;;;;;;-0.62;100.00;99981.78;5082232;28;20027;-50
2021/12/07 06:07:39;;;;;;;2.38;0.60;;;;;;;-0.65;100.00;99969.84;5082810;28;20024;-52
2021/12/07 06:10:05;;;;;;;1.80;0.20;;;;;;;-0.66;100.00;99969.03;5061133;28;20031;-49
2021/12/07 06:12:31;;;;;;;3.20;0.38;;;;;;;-0.64;100.00;99955.06;5081483;28;20032;-51
2021/12/07 06:14:57;;;;;;;1.23;0.43;;;;;;;-0.62;100.00;99951.38;5084542;28;20547;-50
2021/12/07 06:17:22;;;;;;;1.42;0.17;;;;;;;-0.74;100.00;99939.41;5084187;28;20114;-53
2021/12/07 06:19:48;;;;;;;0.28;0.20;;;;;;;-0.85;100.00;99929.06;5083947;28;20042;-51
2021/12/07 06:22:13;;;;;;;1.48;0.43;;;;;;;-0.90;100.00;99919.88;5058491;28;20107;-48
2021/12/07 06:24:38;;;;;;;0.90;0.75;;;;;;;-0.90;100.00;99906.06;5079967;28;20040;-54
2021/12/07 06:27:04;;;;;;;0.28;0.20;;;;;;;-0.91;100.00;99897.41;5082983;28;20389;-50
2021/12/07 06:29:29;;;;;;;0.38;0.35;;;;;;;-0.88;100.00;99904.97;5064817;28;20044;-50
2021/12/07 06:31:55;;;;;;;5.63;0.30;;;;;;;-0.85;100.00;99911.69;5084110;28;20043;-53
2021/12/07 06:34:21;;;;;;;6.05;0.43;;;;;;;-0.80;100.00;99903.47;5082140;28;20373;-49
2021/12/07 06:36:46;;;;;;;1.65;0.30;;;;;;;-0.80;100.00;99898.25;5082416;28;20028;-52
2021/12/07 06:39:12;;;;;;;1.67;0.15;;;;;;;-0.87;100.00;99879.75;5082892;28;20036;-50
2021/12/07 06:41:37;;;;;;;3.78;0.80;;;;;;;-0.88;100.00;99883.31;5073255;28;20499;-51
2021/12/07 06:44:03;;;;;;;0.47;0.10;;;;;;;-0.88;100.00;99881.53;5081240;28;20115;-49
2021/12/07 06:46:29;;;;;;;3.13;0.38;;;;;;;-0.87;100.00;99879.75;5085401;28;20040;-54
2021/12/07 06:48:55;;;;;;;4.25;0.50;;;;;;;-0.76;100.00;99874.44;5084194;28;20396;-50
2021/12/07 06:51:21;;;;;;;1.20;0.40;;;;;;;-0.73;100.00;99874.16;5086034;28;20713;-48
2021/12/07 06:53:46;;;;;;;6.25;0.90;;;;;;;-0.68;100.00;99884.19;5065912;28;20036;-53
2021/12/07 06:56:12;;;;;;;2.00;0.80;;;;;;;-0.64;100.00;99876.97;5084867;28;20097;-51
2021/12/07 06:58:38;;;;;;;1.75;0.82;;;;;;;-0.66;100.00;99877.06;5073461;28;20035;-51
2021/12/07 07:01:06;;;;;;;1.20;0.30;;;;;;;-0.71;100.00;99868.84;5084379;28;20111;-52
2021/12/07 07:03:35;;;;;;;3.80;0.57;;;;;;;-0.74;100.00;99858.69;5067351;28;20647;-51
2021/12/07 07:06:01;;;;;;;1.63;1.02;;;;;;;-0.75;100.00;99837.06;5081418;28;20461;-51
2021/12/07 07:08:26;;;;;;;5.57;0.30;;;;;;;-0.74;100.00;99815.25;5081032;28;20067;-52
2021/12/07 07:10:52;;;;;;;2.10;0.50;;;;;;;-0.74;100.00;99804.84;5082508;28;20039;-53
2021/12/07 07:13:18;;;;;;;1.65;0.20;;;;;;;-0.67;100.00;99807.75;5078944;28;20035;-51
2021/12/07 07:15:43;;;;;;;3.75;0.73;;;;;;;-0.53;100.00;99794.31;5083832;28;20035;-51
2021/12/07 07:18:08;;;;;;;1.25;0.70;;;;;;;-0.47;100.00;99804.19;5078908;28;20476;-48
2021/12/07 07:20:34;;;;;;;8.40;0.55;;;;;;;-0.44;100.00;99800.47;5070281;28;20469;-49
2021/12/07 07:23:00;;;;;;;2.30;0.52;;;;;;;-0.35;100.00;99796.25;5073367;28;20416;-54
2021/12/07 07:25:25;;;;;;;2.60;0.93;;;;;;;-0.30;100.00;99781.84;5083438;28;20039;-51
2021/12/07 07:27:51;;;;;;;3.58;0.40;;;;;;;-0.25;100.00;99776.22;5077862;28;20040;-51
2021/12/07 07:30:18;;;;;;;12.07;0.68;;;;;;;-0.15;100.00;99773.63;5079759;28;20042;-52
2021/12/07 07:32:45;;;;;;;4.35;0.50;;;;;;;-0.08;100.00;99777.28;5064840;28;20028;-54
2021/12/07 07:35:12;;;;;;;3.45;1.48;;;;;;;-0.06;100.00;99768.38;5083192;28;20031;-51
2021/12/07 07:37:37;;;;;;;4.47;1.13;;;;;;;-0.06;100.00;99757.94;5082394;28;20038;-51
2021/12/07 07:40:10;;;;;;;2.20;0.52;;;;;;;-0.07;100.00;99753.69;5062353;28;20066;-52
2021/12/07 07:42:35;;;;;;;1.95;0.57;;;;;;;-0.08;100.00;99749.47;5081241;28;20032;-49
2021/12/07 07:45:02;;;;;;;4.38;0.85;;;;;;;-0.04;100.00;99740.38;5083897;28;20024;-51
2021/12/07 07:47:27;;;;;;;6.07;1.70;;;;;;;-0.05;100.00;99730.13;5081870;28;20028;-49
2021/12/07 07:49:52;;;;;;;5.60;0.47;;;;;;;-0.02;100.00;99725.44;5080353;28;20048;-53
2021/12/07 07:52:18;;;;;;;3.95;0.85;;;;;;;-0.02;100.00;99714.19;5079364;28;20031;-54
2021/12/07 07:54:43;;;;;;;2.30;0.32;;;;;;;0.01;100.00;99700.88;5075193;28;20031;-50
2021/12/07 07:57:09;;;;;;;1.58;0.45;;;;;;;0.04;100.00;99684.13;5074587;28;20032;-50
2021/12/07 07:59:36;;;;;;;3.08;0.22;;;;;;;0.10;100.00;99673.13;5074130;28;20585;-51
2021/12/07 08:02:02;;;;;;;5.30;0.40;;;;;;;0.18;100.00;99644.53;5073530;28;20074;-51
2021/12/07 08:04:27;;;;;;;6.57;0.85;;;;;;;0.27;100.00;99642.88;5074704;28;20028;-51
2021/12/07 08:06:53;;;;;;;0.57;0.32;;;;;;;0.37;100.00;99648.84;5072242;28;20043;-51
2021/12/07 08:09:18;;;;;;;2.25;1.23;;;;;;;0.42;100.00;99651.84;5072218;28;20040;-51
2021/12/07 08:11:44;;;;;;;3.47;1.05;;;;;;;0.40;100.00;99643.34;5076093;28;20032;-53
2021/12/07 08:14:09;;;;;;;12.45;0.80;;;;;;;0.43;100.00;99645.66;5074833;28;20060;-52
2021/12/07 08:16:34;;;;;;;5.03;0.60;;;;;;;0.44;100.00;99639.50;5078959;28;20036;-54
2021/12/07 08:19:01;;;;;;;8.25;0.80;;;;;;;0.45;100.00;99627.25;5081692;28;20397;-48
2021/12/07 08:21:27;;;;;;;9.68;1.48;;;;;;;0.47;100.00;99612.28;5074841;28;20089;-54
2021/12/07 08:23:52;;;;;;;3.10;0.45;;;;;;;0.47;100.00;99618.31;5075388;28;20552;-50
2021/12/07 08:26:21;;;;;;;1.33;0.35;;;;;;;0.44;100.00;99618.63;5075718;28;20032;-54
2021/12/07 08:28:47;;;;;;;1.33;0.20;;;;;;;0.50;100.00;99617.22;5081269;28;20087;-51
2021/12/07 08:31:13;;;;;;;6.35;1.23;;;;;;;0.52;100.00;99610.06;5082907;28;20424;-53
2021/12/07 08:33:38;;;;;;;3.95;0.45;;;;;;;0.56;100.00;99616.59;5082954;28;20034;-51
2021/12/07 08:36:04;;;;;;;2.90;0.35;;;;;;;0.61;100.00;99599.53;5074753;28;20032;-51
2021/12/07 08:38:30;;;;;;;5.95;0.70;;;;;;;0.67;100.00;99613.78;5058113;28;20084;-52
2021/12/07 08:40:57;;;;;;;4.05;0.55;;;;;;;0.77;100.00;99618.94;5080759;28;20337;-53
2021/12/07 08:43:25;;;;;;;1.90;0.35;;;;;;;0.81;100.00;99600.22;5081915;28;20411;-49
2021/12/07 08:45:51;;;;;;;5.13;0.50;;;;;;;0.93;100.00;99587.78;5079077;28;20128;-49
2021/12/07 08:48:18;;;;;;;1.30;0.20;;;;;;;1.04;100.00;99582.31;5079156;28;20030;-50
2021/12/07 08:50:44;;;;;;;2.40;1.40;;;;;;;1.08;100.00;99580.19;5082214;28;20470;-54
2021/12/07 08:53:13;;;;;;;4.97;0.70;;;;;;;1.16;100.00;99576.84;5077116;28;20101;-50
2021/12/07 09:01:13;;;;;;;6.80;0.80;;;;;;;1.40;100.00;99523.97;5087118;28;20510;-52
2021/12/07 09:03:38;;;;;;;3.35;0.60;;;;;;;1.52;100.00;99520.06;5081601;28;20020;-51
2021/12/07 09:06:04;;;;;;;2.97;1.25;;;;;;;1.62;100.00;99525.19;5085466;28;20051;-49
2021/12/07 09:08:30;;;;;;;2.05;0.40;;;;;;;1.69;100.00;99510.53;5086645;28;20602;-51
2021/12/07 09:10:55;;;;;;;3.10;0.43;;;;;;;1.73;100.00;99499.59;5069453;28;20037;-50
2021/12/07 09:13:23;;;;;;;4.00;0.65;;;;;;;1.84;100.00;99490.66;5087383;28;20040;-49
2021/12/07 09:15:50;;;;;;;3.33;1.45;;;;;;;1.92;100.00;99461.09;5064463;28;20062;-51
2021/12/07 09:18:15;;;;;;;8.45;1.98;;;;;;;1.93;100.00;99450.47;5088242;28;20055;-48
2021/12/07 09:20:41;;;;;;;1.35;0.90;;;;;;;1.97;100.00;99435.28;5083868;28;20671;-53
2021/12/07 09:23:06;;;;;;;7.57;1.05;;;;;;;2.08;100.00;99408.81;5084311;28;20465;-51
2021/12/07 09:25:32;;;;;;;6.03;0.75;;;;;;;2.16;100.00;99400.97;5087252;28;20144;-54
2021/12/07 09:27:57;;;;;;;2.55;0.40;;;;;;;2.22;100.00;99380.38;5087083;28;20024;-52
2021/12/07 09:30:24;;;;;;;8.32;0.88;;;;;;;2.33;100.00;99370.41;5083198;28;20031;-50
2021/12/07 09:32:50;;;;;;;3.55;0.40;;;;;;;2.42;100.00;99375.66;5063251;28;20047;-54
2021/12/07 09:35:16;;;;;;;4.90;0.40;;;;;;;2.45;100.00;99359.59;5084990;28;20417;-49
2021/12/07 09:37:42;;;;;;;6.38;1.30;;;;;;;2.48;100.00;99360.13;5083698;28;20063;-50
2021/12/07 09:40:12;;;;;;;5.35;0.70;;;;;;;2.51;100.00;99351.13;5083239;28;20056;-54
2021/12/07 09:42:38;;;;;;;9.00;0.40;;;;;;;2.58;100.00;99341.59;5083536;28;20047;-50
2021/12/07 09:45:06;;;;;;;0.80;0.25;;;;;;;2.65;100.00;99326.84;5087042;28;20446;-51
2021/12/07 09:47:31;;;;;;;5.45;0.68;;;;;;;2.69;100.00;99315.09;5085321;28;20034;-48
2021/12/07 09:49:57;;;;;;;11.73;0.65;;;;;;;2.71;100.00;99305.25;5065923;28;20467;-50
2021/12/07 09:52:24;;;;;;;9.57;1.17;;;;;;;2.77;100.00;99288.06;5084866;28;20472;-48
2021/12/07 09:54:49;;;;;;;3.70;0.38;;;;;;;2.80;100.00;99279.84;5077848;28;20036;-52
2021/12/07 09:57:15;;;;;;;16.42;0.80;;;;;;;2.82;100.00;99265.63;5073616;28;20471;-52
2021/12/07 09:59:41;;;;;;;9.55;0.80;;;;;;;2.86;100.00;99253.00;5084232;28;20074;-51
2021/12/07 10:02:07;;;;;;;9.95;1.15;;;;;;;2.93;100.00;99250.50;5083142;28;20484;-51
2021/12/07 10:04:33;;;;;;;4.28;1.27;;;;;;;2.96;100.00;99258.81;5081311;28;20075;-50
2021/12/07 10:07:00;;;;;;;13.73;1.45;;;;;;;3.06;100.00;99261.25;5086549;28;20024;-51
2021/12/07 10:09:25;;;;;;;5.10;1.23;;;;;;;3.12;100.00;99239.59;5064912;28;20028;-50
2021/12/07 10:11:53;;;;;;;10.43;2.85;;;;;;;3.17;100.00;99224.16;5054994;28;20032;-51
2021/12/07 10:14:18;;;;;;;4.93;2.42;;;;;;;3.21;100.00;99211.56;5084233;28;20135;-50
2021/12/07 10:16:46;;;;;;;6.70;0.77;;;;;;;3.23;100.00;99207.78;5076193;28;20529;-54
2021/12/07 10:19:15;;;;;;;1.58;0.30;;;;;;;3.22;100.00;99190.41;5082203;28;20028;-53
2021/12/07 10:21:43;;;;;;;8.35;1.55;;;;;;;3.25;100.00;99197.94;5082937;28;20425;-49
2021/12/07 10:24:11;;;;;;;10.10;1.65;;;;;;;3.32;100.00;99194.59;5084868;28;20052;-53
2021/12/07 10:26:39;;;;;;;8.00;0.93;;;;;;;3.39;100.00;99182.44;5067029;28;20040;-47
2021/12/07 10:29:14;;;;;;;2.40;0.60;;;;;;;3.44;100.00;99183.53;5084088;28;20036;-49
2021/12/07 10:31:42;;;;;;;5.07;0.65;;;;;;;3.48;100.00;99163.88;5084046;28;20032;-52
2021/12/07 10:34:11;;;;;;;7.82;0.98;;;;;;;3.54;100.00;99162.34;5085379;28;20123;-50
2021/12/07 10:36:46;;;;;;;9.15;2.63;;;;;;;3.62;100.00;99149.16;5079731;28;20078;-50
2021/12/07 10:39:16;;;;;;;6.22;0.70;;;;;;;3.66;100.00;99155.66;5085532;28;20032;-49
2021/12/07 10:41:50;;;;;;;4.55;1.55;;;;;;;3.69;100.00;99142.19;5082629;28;20035;-49
2021/12/07 10:44:27;;;;;;;3.58;0.52;;;;;;;3.72;100.00;99118.25;5080727;28;20553;-49
2021/12/07 10:46:58;;;;;;;5.28;1.13;;;;;;;3.76;100.00;99102.97;5079983;28;20032;-51
2021/12/07 10:49:44;;;;;;;4.97;1.30;;;;;;;3.84;100.00;99096.81;5086042;28;20073;-52
2021/12/07 10:52:20;;;;;;;4.75;0.82;;;;;;;3.87;100.00;99081.53;5085669;28;20613;-51
2021/12/07 10:55:15;;;;;;;2.72;0.82;;;;;;;3.91;100.00;99067.06;5080015;28;20027;-49
2021/12/07 10:57:50;;;;;;;3.83;0.50;;;;;;;4.01;100.00;99053.66;5081491;28;20036;-55
2021/12/07 11:00:20;;;;;;;7.47;1.20;;;;;;;4.08;100.00;99027.50;5076015;28;20390;-51
2021/12/07 11:03:06;;;;;;;17.40;2.00;;;;;;;4.06;100.00;99024.28;5080618;28;20542;-48
2021/12/07 11:05:36;;;;;;;3.72;0.93;;;;;;;4.04;100.00;99021.81;5079179;28;20119;-56
2021/12/07 11:08:03;;;;;;;5.90;1.23;;;;;;;4.03;100.00;99007.09;5083295;28;20475;-50
2021/12/07 11:10:32;;;;;;;3.83;1.38;;;;;;;4.12;100.00;99008.59;5074983;28;20481;-50
2021/12/07 11:13:14;;;;;;;3.92;1.30;;;;;;;4.18;100.00;99000.97;5062748;28;20036;-55
2021/12/07 11:16:04;;;;;;;7.15;2.38;;;;;;;4.21;100.00;98984.88;5085294;28;20115;-54
2021/12/07 11:18:33;;;;;;;4.57;1.58;;;;;;;4.28;100.00;98975.25;5081848;28;20036;-54
2021/12/07 11:21:07;;;;;;;7.82;1.85;;;;;;;4.41;100.00;98954.38;5076956;28;20028;-54
2021/12/07 11:23:45;;;;;;;8.65;0.75;;;;;;;4.47;100.00;98943.16;5083021;28;20157;-54
2021/12/07 11:31:41;;;;;;;6.22;1.27;;;;;;;4.71;100.00;98891.22;5078213;28;20054;-50
2021/12/07 11:34:14;;;;;;;8.13;1.13;;;;;;;4.81;100.00;98870.69;5076804;28;20024;-53
2021/12/07 11:37:05;;;;;;;2.75;1.13;;;;;;;4.87;100.00;98848.09;5055449;28;20046;-55
2021/12/07 11:39:37;;;;;;;13.00;2.17;;;;;;;4.91;100.00;98831.75;5073687;28;20541;-50
2021/12/07 11:42:11;;;;;;;8.05;1.85;;;;;;;4.99;100.00;98826.34;5074076;28;20036;-57
2021/12/07 11:44:52;;;;;;;9.55;2.03;;;;;;;5.00;100.00;98816.63;5076838;28;20506;-50
2021/12/07 11:47:25;;;;;;;10.77;0.88;;;;;;;5.05;100.00;98801.09;5077394;28;20042;-50
2021/12/07 11:49:51;;;;;;;13.85;1.45;;;;;;;5.04;100.00;98794.22;5072087;28;20036;-49
2021/12/07 11:52:16;;;;;;;9.52;2.35;;;;;;;5.02;100.00;98773.41;5075705;28;20031;-50
2021/12/07 11:54:43;;;;;;;3.15;0.40;;;;;;;5.05;100.00;98771.41;5078258;28;20090;-49
2021/12/07 11:57:12;;;;;;;10.63;1.33;;;;;;;5.05;100.00;98771.41;5085166;28;20050;-52
2021/12/07 11:59:39;;;;;;;10.88;1.15;;;;;;;5.08;100.00;98757.84;5078049;28;20028;-48
2021/12/07 12:02:04;;;;;;;6.20;0.50;;;;;;;5.07;100.00;98762.31;5084530;28;20039;-51
2021/12/07 12:04:31;;;;;;;5.90;0.90;;;;;;;5.07;100.00;98745.75;5080706;28;20369;-53
2021/12/07 12:06:57;;;;;;;3.05;0.68;;;;;;;5.09;100.00;98727.97;5083880;28;20043;-51
2021/12/07 12:09:25;;;;;;;4.97;1.02;;;;;;;5.16;100.00;98715.63;5084925;28;20108;-50
2021/12/07 12:12:24;;;;;;;4.40;1.30;;;;;;;5.16;100.00;98705.97;5083127;28;20043;-49
2021/12/07 12:15:17;;;;;;;9.43;0.40;;;;;;;5.17;100.00;98712.03;5078819;28;20051;-52
2021/12/07 12:18:12;;;;;;;15.13;2.15;;;;;;;5.19;100.00;98691.63;5075177;28;20432;-48
2021/12/07 12:20:56;;;;;;;4.38;0.80;;;;;;;5.21;100.00;98672.03;5080497;28;20032;-50
2021/12/07 12:23:43;;;;;;;5.22;0.98;;;;;;;5.24;100.00;98655.84;5072854;28;20046;-50
2021/12/07 12:26:11;;;;;;;8.13;1.45;;;;;;;5.24;100.00;98645.34;5073773;28;20087;-54
2021/12/07 12:28:48;;;;;;;4.13;1.88;;;;;;;5.25;100.00;98636.44;5083062;28;20708;-51
2021/12/07 12:31:14;;;;;;;8.73;0.65;;;;;;;5.24;100.00;98626.94;5084028;28;20028;-47
2021/12/07 12:33:55;;;;;;;8.13;1.67;;;;;;;5.28;100.00;98622.06;5085070;28;20029;-52
2021/12/07 12:36:23;;;;;;;2.28;0.70;;;;;;;5.29;100.00;98613.19;5085675;28;20116;-52
2021/12/07 12:39:01;;;;;;;7.72;0.73;;;;;;;5.32;100.00;98607.53;5080667;28;20035;-50
2021/12/07 12:41:27;;;;;;;3.70;0.50;;;;;;;5.33;100.00;98582.84;5076868;28;20536;-51
2021/12/07 12:44:08;;;;;;;3.13;0.82;;;;;;;5.35;100.00;98575.59;5086279;28;20036;-50
2021/12/07 12:46:37;;;;;;;10.10;1.80;;;;;;;5.36;100.00;98561.44;5084873;28;20472;-48
2021/12/07 12:49:11;;;;;;;7.03;1.67;;;;;;;5.40;100.00;98536.38;5079076;28;20081;-51
2021/12/07 12:51:50;;;;;;;8.15;0.40;;;;;;;5.42;100.00;98526.47;5087401;28;20036;-51
2021/12/07 12:54:18;;;;;;;7.85;2.03;;;;;;;5.43;100.00;98509.66;5088222;28;20581;-50
2021/12/07 12:56:44;;;;;;;2.75;0.32;;;;;;;5.46;100.00;98506.63;5086440;28;20399;-52
2021/12/07 12:59:12;;;;;;;10.88;1.75;;;;;;;5.47;100.00;98492.47;5083840;28;20040;-50
2021/12/07 13:01:44;;;;;;;5.28;1.40;;;;;;;5.51;100.00;98489.44;5082220;28;20028;-49
2021/12/07 13:04:16;;;;;;;4.18;1.25;;;;;;;5.57;100.00;98464.94;5085138;28;20044;-49
2021/12/07 13:06:55;;;;;;;6.75;0.77;;;;;;;5.59;100.00;98447.94;5086285;28;20035;-51
2021/12/07 13:09:24;;;;;;;7.20;0.77;;;;;;;5.61;100.00;98431.97;5086972;28;20040;-52
2021/12/07 13:12:03;;;;;;;6.00;0.38;;;;;;;5.63;100.00;98416.78;5084382;28;20039;-50
2021/12/07 13:14:35;;;;;;;5.18;1.40;;;;;;;5.65;100.00;98409.47;5079599;28;20032;-53
2021/12/07 13:17:14;;;;;;;5.10;1.48;;;;;;;5.67;100.00;98403.00;5085238;28;20032;-51
2021/12/07 13:20:04;;;;;;;5.47;0.55;;;;;;;5.69;100.00;98389.66;5081199;28;20032;-48